DAL919 KLAX-CYVR
Flight info
| Callsign | DAL919 |
|---|---|
| Flight time | N/A |
| Altitude | 38000 |
| Route | SUMMR2 SCTRR DCT SNS DCT RBL DCT PAE GRIZZ7 |
| Aircraft | A339/H-SADE1E2E3GHIJ3J5M1P2RWXY/LB2D1 |
Departure
| Time | 2026-04-21 02:34 |
|---|---|
| Airport | Los Angeles International Airport (KLAX) |
Arrival
| Time | N/A |
|---|---|
| Airport | Vancouver International Airport (CYVR) |
| Time | Latitude | Longitude | Altitude | Speed | Heading |
|---|---|---|---|---|---|
| 2026-04-21 02:09 | 33.94099 | -118.41092 | 110 ft | 0 kts | 83° |
| 2026-04-21 02:22 | 33.94098 | -118.41096 | 125 ft | 1 kts | 83° |
| 2026-04-21 02:22 | 33.94098 | -118.41101 | 131 ft | 1 kts | 83° |
| 2026-04-21 02:22 | 33.94097 | -118.41107 | 131 ft | 1 kts | 83° |
| 2026-04-21 02:23 | 33.94096 | -118.41118 | 128 ft | 2 kts | 83° |
| 2026-04-21 02:23 | 33.94094 | -118.41131 | 131 ft | 2 kts | 83° |
| 2026-04-21 02:23 | 33.94093 | -118.41144 | 131 ft | 2 kts | 83° |
| 2026-04-21 02:23 | 33.94092 | -118.41157 | 131 ft | 2 kts | 76° |
| 2026-04-21 02:24 | 33.94091 | -118.41170 | 131 ft | 2 kts | 55° |
| 2026-04-21 02:24 | 33.94085 | -118.41182 | 131 ft | 2 kts | 34° |
| 2026-04-21 02:24 | 33.94076 | -118.41190 | 128 ft | 2 kts | 12° |
| 2026-04-21 02:24 | 33.94069 | -118.41193 | 131 ft | 0 kts | 356° |
| 2026-04-21 02:26 | 33.94077 | -118.41194 | 128 ft | 4 kts | 355° |
| 2026-04-21 02:27 | 33.94135 | -118.41202 | 129 ft | 11 kts | 354° |
| 2026-04-21 02:27 | 33.94215 | -118.41212 | 130 ft | 12 kts | 353° |
| 2026-04-21 02:27 | 33.94304 | -118.41226 | 130 ft | 13 kts | 352° |
| 2026-04-21 02:27 | 33.94401 | -118.41242 | 130 ft | 15 kts | 352° |
| 2026-04-21 02:28 | 33.94505 | -118.41259 | 129 ft | 16 kts | 352° |
| 2026-04-21 02:28 | 33.94593 | -118.41272 | 129 ft | 11 kts | 353° |
| 2026-04-21 02:28 | 33.94621 | -118.41275 | 129 ft | 0 kts | 353° |
| 2026-04-21 02:29 | 33.94622 | -118.41275 | 129 ft | 1 kts | 353° |
| 2026-04-21 02:29 | 33.94648 | -118.41279 | 129 ft | 8 kts | 353° |
| 2026-04-21 02:29 | 33.94728 | -118.41290 | 127 ft | 14 kts | 353° |
| 2026-04-21 02:30 | 33.94797 | -118.41246 | 126 ft | 12 kts | 64° |
| 2026-04-21 02:30 | 33.94810 | -118.41144 | 131 ft | 13 kts | 83° |
| 2026-04-21 02:30 | 33.94822 | -118.41028 | 131 ft | 15 kts | 83° |
| 2026-04-21 02:30 | 33.94835 | -118.40899 | 131 ft | 16 kts | 83° |
| 2026-04-21 02:31 | 33.94848 | -118.40758 | 128 ft | 18 kts | 83° |
| 2026-04-21 02:31 | 33.94864 | -118.40604 | 124 ft | 19 kts | 83° |
| 2026-04-21 02:31 | 33.94880 | -118.40443 | 125 ft | 20 kts | 83° |
| 2026-04-21 02:31 | 33.94898 | -118.40273 | 128 ft | 19 kts | 83° |
| 2026-04-21 02:32 | 33.94913 | -118.40133 | 127 ft | 13 kts | 83° |
| 2026-04-21 02:32 | 33.94924 | -118.40024 | 131 ft | 13 kts | 83° |
| 2026-04-21 02:32 | 33.94948 | -118.39937 | 125 ft | 5 kts | 46° |
| 2026-04-21 02:32 | 33.94985 | -118.39916 | 124 ft | 6 kts | 12° |
| 2026-04-21 02:33 | 33.95034 | -118.39922 | 128 ft | 8 kts | 350° |
| 2026-04-21 02:33 | 33.95041 | -118.39957 | 122 ft | 3 kts | 264° |
| 2026-04-21 02:33 | 33.95041 | -118.39959 | 122 ft | 0 kts | 262° |
| 2026-04-21 02:33 | 33.95024 | -118.40115 | 131 ft | 56 kts | 263° |
| 2026-04-21 02:34 | 33.94944 | -118.40903 | 131 ft | 133 kts | 263° |
| 2026-04-21 02:34 | 33.94804 | -118.42200 | 430 ft | 164 kts | 262° |
| 2026-04-21 02:34 | 33.94669 | -118.43559 | 1329 ft | 164 kts | 262° |
| 2026-04-21 02:34 | 33.94528 | -118.44930 | 2170 ft | 169 kts | 263° |
| 2026-04-21 02:35 | 33.94374 | -118.46425 | 2691 ft | 190 kts | 263° |
| 2026-04-21 02:35 | 33.94297 | -118.48091 | 3170 ft | 209 kts | 268° |
| 2026-04-21 02:35 | 33.94254 | -118.49922 | 3660 ft | 228 kts | 268° |
| 2026-04-21 02:35 | 33.94160 | -118.51899 | 4106 ft | 246 kts | 264° |
| 2026-04-21 02:36 | 33.93994 | -118.54031 | 4487 ft | 264 kts | 263° |
| 2026-04-21 02:36 | 33.93814 | -118.56259 | 4877 ft | 269 kts | 263° |
| 2026-04-21 02:36 | 33.93633 | -118.58507 | 4995 ft | 269 kts | 263° |
| 2026-04-21 02:36 | 33.93454 | -118.60755 | 5017 ft | 269 kts | 263° |
| 2026-04-21 02:37 | 33.93278 | -118.62998 | 5016 ft | 269 kts | 263° |
| 2026-04-21 02:37 | 33.93103 | -118.65243 | 5016 ft | 269 kts | 263° |
| 2026-04-21 02:37 | 33.92927 | -118.67499 | 5018 ft | 270 kts | 263° |
| 2026-04-21 02:37 | 33.92752 | -118.69747 | 5016 ft | 269 kts | 263° |
| 2026-04-21 02:38 | 33.92578 | -118.71978 | 5177 ft | 272 kts | 263° |
| 2026-04-21 02:38 | 33.92403 | -118.74245 | 5878 ft | 272 kts | 262° |
| 2026-04-21 02:38 | 33.92228 | -118.76519 | 6600 ft | 274 kts | 262° |
| 2026-04-21 02:38 | 33.92050 | -118.78812 | 7273 ft | 276 kts | 262° |
| 2026-04-21 02:39 | 33.91870 | -118.81116 | 7988 ft | 277 kts | 262° |
| 2026-04-21 02:39 | 33.91707 | -118.83442 | 8677 ft | 281 kts | 264° |
| 2026-04-21 02:39 | 33.91758 | -118.85808 | 9374 ft | 284 kts | 269° |
| 2026-04-21 02:39 | 33.91848 | -118.88199 | 10071 ft | 287 kts | 268° |
| 2026-04-21 02:40 | 33.91929 | -118.90648 | 10435 ft | 302 kts | 268° |
| 2026-04-21 02:40 | 33.92004 | -118.93253 | 10620 ft | 321 kts | 268° |
| 2026-04-21 02:40 | 33.92083 | -118.96013 | 10906 ft | 335 kts | 268° |
| 2026-04-21 02:40 | 33.92176 | -118.98824 | 11533 ft | 337 kts | 270° |
| 2026-04-21 02:41 | 33.92601 | -119.01624 | 12162 ft | 345 kts | 283° |
| 2026-04-21 02:41 | 33.93556 | -119.04301 | 12806 ft | 352 kts | 295° |
| 2026-04-21 02:41 | 33.94877 | -119.06810 | 13398 ft | 357 kts | 298° |
| 2026-04-21 02:41 | 33.96216 | -119.09337 | 13994 ft | 359 kts | 297° |
| 2026-04-21 02:42 | 33.97104 | -119.11033 | 14337 ft | 361 kts | 297° |
| 2026-04-21 02:42 | 33.98443 | -119.13614 | 14862 ft | 365 kts | 297° |
| 2026-04-21 02:42 | 34.00293 | -119.17030 | 15529 ft | 372 kts | 302° |
| 2026-04-21 02:42 | 34.01437 | -119.18638 | 15887 ft | 378 kts | 309° |
| 2026-04-21 02:43 | 34.03438 | -119.20764 | 16402 ft | 387 kts | 319° |
| 2026-04-21 02:43 | 34.05634 | -119.22615 | 16896 ft | 392 kts | 320° |
| 2026-04-21 02:43 | 34.07873 | -119.24509 | 17371 ft | 395 kts | 320° |
| 2026-04-21 02:43 | 34.10124 | -119.26433 | 17866 ft | 398 kts | 320° |
| 2026-04-21 02:44 | 34.12393 | -119.28383 | 18341 ft | 402 kts | 319° |
| 2026-04-21 02:44 | 34.14677 | -119.30351 | 18795 ft | 404 kts | 319° |
| 2026-04-21 02:44 | 34.16969 | -119.32327 | 19269 ft | 406 kts | 319° |
| 2026-04-21 02:44 | 34.19273 | -119.34316 | 19748 ft | 408 kts | 319° |
| 2026-04-21 02:45 | 34.21592 | -119.36319 | 20229 ft | 411 kts | 319° |
| 2026-04-21 02:45 | 34.23920 | -119.38330 | 20725 ft | 413 kts | 319° |
| 2026-04-21 02:45 | 34.26263 | -119.40356 | 21199 ft | 415 kts | 319° |
| 2026-04-21 02:45 | 34.28622 | -119.42398 | 21694 ft | 418 kts | 319° |
| 2026-04-21 02:46 | 34.30988 | -119.44447 | 22196 ft | 420 kts | 319° |
| 2026-04-21 02:46 | 34.33376 | -119.46515 | 22690 ft | 422 kts | 319° |
| 2026-04-21 02:46 | 34.35769 | -119.48589 | 23182 ft | 425 kts | 319° |
| 2026-04-21 02:46 | 34.38181 | -119.50682 | 23658 ft | 427 kts | 319° |
| 2026-04-21 02:47 | 34.40601 | -119.52783 | 24107 ft | 429 kts | 319° |
| 2026-04-21 02:47 | 34.43015 | -119.54915 | 24569 ft | 429 kts | 317° |
| 2026-04-21 02:47 | 34.45376 | -119.57134 | 25002 ft | 430 kts | 316° |
| 2026-04-21 02:47 | 34.47729 | -119.59391 | 25478 ft | 432 kts | 316° |
| 2026-04-21 02:48 | 34.50091 | -119.61654 | 25933 ft | 434 kts | 316° |
| 2026-04-21 02:48 | 34.52472 | -119.63921 | 26340 ft | 436 kts | 316° |
| 2026-04-21 02:48 | 34.54872 | -119.66192 | 26776 ft | 438 kts | 316° |
| 2026-04-21 02:48 | 34.57277 | -119.68466 | 27218 ft | 439 kts | 316° |
| 2026-04-21 02:49 | 34.59690 | -119.70749 | 27630 ft | 441 kts | 316° |
| 2026-04-21 02:49 | 34.62120 | -119.73048 | 28027 ft | 443 kts | 316° |
| 2026-04-21 02:49 | 34.64529 | -119.75328 | 28421 ft | 446 kts | 316° |
| 2026-04-21 02:49 | 34.66985 | -119.77655 | 28780 ft | 448 kts | 316° |
| 2026-04-21 02:50 | 34.69443 | -119.79987 | 29153 ft | 449 kts | 316° |
| 2026-04-21 02:50 | 34.71916 | -119.82334 | 29538 ft | 452 kts | 316° |
| 2026-04-21 02:50 | 34.74394 | -119.84687 | 29930 ft | 454 kts | 316° |
| 2026-04-21 02:50 | 34.76889 | -119.87055 | 30285 ft | 455 kts | 316° |
| 2026-04-21 02:51 | 34.79399 | -119.89444 | 30568 ft | 459 kts | 316° |
| 2026-04-21 02:51 | 34.81918 | -119.91842 | 30873 ft | 461 kts | 316° |
| 2026-04-21 02:51 | 34.84451 | -119.94254 | 31190 ft | 464 kts | 316° |
| 2026-04-21 02:51 | 34.86996 | -119.96680 | 31505 ft | 466 kts | 316° |
| 2026-04-21 02:52 | 34.89552 | -119.99124 | 31796 ft | 468 kts | 316° |
| 2026-04-21 02:52 | 34.92125 | -120.01582 | 32138 ft | 470 kts | 316° |
| 2026-04-21 02:52 | 34.94706 | -120.04048 | 32429 ft | 472 kts | 316° |
| 2026-04-21 02:52 | 34.97297 | -120.06524 | 32724 ft | 474 kts | 316° |
| 2026-04-21 02:53 | 34.99897 | -120.09011 | 32949 ft | 476 kts | 316° |
| 2026-04-21 02:53 | 35.02507 | -120.11512 | 33171 ft | 478 kts | 316° |
| 2026-04-21 02:53 | 35.05099 | -120.13997 | 33366 ft | 479 kts | 316° |
| 2026-04-21 02:53 | 35.07722 | -120.16513 | 33575 ft | 480 kts | 316° |
| 2026-04-21 02:54 | 35.10347 | -120.19033 | 33805 ft | 480 kts | 316° |
| 2026-04-21 02:54 | 35.12967 | -120.21550 | 34047 ft | 479 kts | 316° |
| 2026-04-21 02:54 | 35.15581 | -120.24063 | 34238 ft | 478 kts | 316° |
| 2026-04-21 02:54 | 35.18197 | -120.26578 | 34421 ft | 479 kts | 316° |
| 2026-04-21 02:55 | 35.20851 | -120.29040 | 34639 ft | 479 kts | 317° |
| 2026-04-21 02:55 | 35.23538 | -120.31473 | 34841 ft | 479 kts | 317° |
| 2026-04-21 02:55 | 35.26215 | -120.33894 | 35029 ft | 479 kts | 317° |
| 2026-04-21 02:55 | 35.28890 | -120.36324 | 35219 ft | 479 kts | 317° |
| 2026-04-21 02:56 | 35.31559 | -120.38759 | 35426 ft | 478 kts | 317° |
| 2026-04-21 02:56 | 35.36884 | -120.43641 | 35801 ft | 478 kts | 317° |
| 2026-04-21 02:56 | 35.39546 | -120.46087 | 35998 ft | 477 kts | 317° |
| 2026-04-21 02:57 | 35.42204 | -120.48531 | 36192 ft | 476 kts | 316° |
| 2026-04-21 02:57 | 35.44826 | -120.50943 | 36364 ft | 476 kts | 316° |
| 2026-04-21 02:57 | 35.47475 | -120.53383 | 36571 ft | 476 kts | 316° |
| 2026-04-21 02:57 | 35.50116 | -120.55818 | 36755 ft | 475 kts | 316° |
| 2026-04-21 02:58 | 35.52765 | -120.58261 | 36926 ft | 475 kts | 316° |
| 2026-04-21 02:58 | 35.55426 | -120.60674 | 37085 ft | 476 kts | 317° |
| 2026-04-21 02:58 | 35.58131 | -120.63055 | 37266 ft | 476 kts | 318° |
| 2026-04-21 02:58 | 35.60826 | -120.65412 | 37447 ft | 475 kts | 318° |
| 2026-04-21 02:59 | 35.63517 | -120.67772 | 37637 ft | 475 kts | 317° |
| 2026-04-21 02:59 | 35.66198 | -120.70135 | 37818 ft | 474 kts | 317° |
| 2026-04-21 02:59 | 35.68873 | -120.72501 | 37987 ft | 474 kts | 317° |
| 2026-04-21 02:59 | 35.71551 | -120.74875 | 38045 ft | 474 kts | 317° |
| 2026-04-21 03:00 | 35.76885 | -120.79611 | 38024 ft | 472 kts | 317° |
| 2026-04-21 03:00 | 35.82216 | -120.84355 | 38043 ft | 472 kts | 317° |
| 2026-04-21 03:01 | 35.87507 | -120.89069 | 38041 ft | 472 kts | 317° |
| 2026-04-21 03:01 | 35.92839 | -120.93828 | 38011 ft | 472 kts | 317° |
| 2026-04-21 03:02 | 35.98165 | -120.98589 | 38012 ft | 472 kts | 317° |
| 2026-04-21 03:02 | 36.03490 | -121.03359 | 38003 ft | 473 kts | 316° |
| 2026-04-21 03:03 | 36.08817 | -121.08137 | 37998 ft | 473 kts | 316° |
| 2026-04-21 03:03 | 36.14151 | -121.12931 | 37993 ft | 475 kts | 316° |
| 2026-04-21 03:04 | 36.19499 | -121.17745 | 37985 ft | 474 kts | 316° |
| 2026-04-21 03:04 | 36.24834 | -121.22553 | 37984 ft | 474 kts | 316° |
| 2026-04-21 03:05 | 36.30142 | -121.27351 | 37976 ft | 477 kts | 316° |
| 2026-04-21 03:05 | 36.35501 | -121.32199 | 37976 ft | 477 kts | 316° |
| 2026-04-21 03:06 | 36.40879 | -121.37071 | 37962 ft | 479 kts | 316° |
| 2026-04-21 03:06 | 36.46264 | -121.41960 | 37947 ft | 479 kts | 316° |
| 2026-04-21 03:07 | 36.51647 | -121.46856 | 37949 ft | 480 kts | 316° |
| 2026-04-21 03:07 | 36.57046 | -121.51775 | 37941 ft | 481 kts | 316° |
| 2026-04-21 03:08 | 36.62443 | -121.56635 | 37913 ft | 485 kts | 320° |
| 2026-04-21 03:08 | 36.68650 | -121.60275 | 37916 ft | 503 kts | 336° |
| 2026-04-21 03:09 | 36.75599 | -121.61943 | 37914 ft | 513 kts | 347° |
| 2026-04-21 03:09 | 36.82687 | -121.63174 | 37924 ft | 514 kts | 346° |
| 2026-04-21 03:10 | 36.89780 | -121.64434 | 37948 ft | 516 kts | 346° |
| 2026-04-21 03:10 | 36.96896 | -121.65697 | 37959 ft | 517 kts | 346° |
| 2026-04-21 03:11 | 37.04025 | -121.66962 | 37957 ft | 517 kts | 346° |
| 2026-04-21 03:11 | 37.11117 | -121.68222 | 37952 ft | 518 kts | 346° |
| 2026-04-21 03:12 | 37.18258 | -121.69492 | 37945 ft | 520 kts | 346° |
| 2026-04-21 03:12 | 37.25423 | -121.70771 | 37947 ft | 520 kts | 346° |
| 2026-04-21 03:13 | 37.32606 | -121.72053 | 37944 ft | 521 kts | 346° |
| 2026-04-21 03:13 | 37.39794 | -121.73342 | 37947 ft | 523 kts | 346° |
| 2026-04-21 03:14 | 37.47006 | -121.74637 | 37951 ft | 525 kts | 346° |
| 2026-04-21 03:14 | 37.54237 | -121.75940 | 37930 ft | 526 kts | 346° |
| 2026-04-21 03:15 | 37.61487 | -121.77242 | 37932 ft | 527 kts | 346° |
| 2026-04-21 03:15 | 37.68762 | -121.78555 | 37933 ft | 528 kts | 346° |
| 2026-04-21 03:16 | 37.76001 | -121.79864 | 37921 ft | 529 kts | 346° |
| 2026-04-21 03:16 | 37.83306 | -121.81188 | 37931 ft | 530 kts | 346° |
| 2026-04-21 03:17 | 37.90633 | -121.82519 | 37943 ft | 531 kts | 346° |
| 2026-04-21 03:17 | 37.97959 | -121.83853 | 37940 ft | 533 kts | 346° |
| 2026-04-21 03:18 | 38.05310 | -121.85193 | 37942 ft | 534 kts | 346° |
| 2026-04-21 03:18 | 38.12672 | -121.86538 | 37928 ft | 535 kts | 346° |
| 2026-04-21 03:19 | 38.20052 | -121.87889 | 37925 ft | 536 kts | 346° |
| 2026-04-21 03:19 | 38.27446 | -121.89246 | 37924 ft | 537 kts | 346° |
| 2026-04-21 03:20 | 38.34843 | -121.90606 | 37945 ft | 538 kts | 346° |
| 2026-04-21 03:20 | 38.42254 | -121.91972 | 37948 ft | 538 kts | 347° |
| 2026-04-21 03:21 | 38.49675 | -121.93343 | 37961 ft | 539 kts | 347° |
| 2026-04-21 03:21 | 38.57104 | -121.94717 | 37965 ft | 540 kts | 347° |
| 2026-04-21 03:22 | 38.64543 | -121.96096 | 37963 ft | 540 kts | 347° |
| 2026-04-21 03:22 | 38.71937 | -121.97470 | 37960 ft | 540 kts | 347° |
| 2026-04-21 03:23 | 38.79388 | -121.98857 | 37957 ft | 540 kts | 347° |
| 2026-04-21 03:23 | 38.86834 | -122.00246 | 37952 ft | 541 kts | 347° |
| 2026-04-21 03:24 | 38.94281 | -122.01639 | 37956 ft | 541 kts | 347° |
| 2026-04-21 03:24 | 39.01730 | -122.03034 | 37961 ft | 541 kts | 347° |
| 2026-04-21 03:25 | 39.09185 | -122.04434 | 37956 ft | 541 kts | 347° |
| 2026-04-21 03:25 | 39.16590 | -122.05827 | 37954 ft | 541 kts | 347° |
| 2026-04-21 03:26 | 39.24055 | -122.07234 | 37956 ft | 541 kts | 348° |
| 2026-04-21 03:26 | 39.31512 | -122.08643 | 37957 ft | 542 kts | 348° |
| 2026-04-21 03:27 | 39.38976 | -122.10056 | 37952 ft | 542 kts | 348° |
| 2026-04-21 03:27 | 39.46411 | -122.11467 | 37957 ft | 542 kts | 348° |
| 2026-04-21 03:28 | 39.53877 | -122.12887 | 37957 ft | 543 kts | 348° |
| 2026-04-21 03:28 | 39.61360 | -122.14313 | 37957 ft | 543 kts | 348° |
| 2026-04-21 03:29 | 39.68842 | -122.15742 | 37957 ft | 543 kts | 348° |
| 2026-04-21 03:29 | 39.75062 | -122.16933 | 37963 ft | 543 kts | 348° |
| 2026-04-21 03:30 | 39.82538 | -122.18366 | 37966 ft | 543 kts | 348° |
| 2026-04-21 03:30 | 39.90015 | -122.19803 | 37973 ft | 543 kts | 348° |
| 2026-04-21 03:31 | 39.97506 | -122.21246 | 37983 ft | 543 kts | 349° |
| 2026-04-21 03:31 | 40.04950 | -122.22682 | 37987 ft | 544 kts | 349° |
| 2026-04-21 03:32 | 40.12481 | -122.23679 | 37984 ft | 546 kts | 359° |
| 2026-04-21 03:32 | 40.20079 | -122.23671 | 37987 ft | 546 kts | 358° |
| 2026-04-21 03:33 | 40.27681 | -122.23718 | 37990 ft | 546 kts | 358° |
| 2026-04-21 03:33 | 40.35282 | -122.23761 | 37980 ft | 546 kts | 359° |
| 2026-04-21 03:34 | 40.42880 | -122.23797 | 37976 ft | 545 kts | 359° |
| 2026-04-21 03:34 | 40.50465 | -122.23833 | 37977 ft | 544 kts | 359° |
| 2026-04-21 03:35 | 40.58043 | -122.23869 | 37974 ft | 544 kts | 359° |
| 2026-04-21 03:35 | 40.65607 | -122.23904 | 37989 ft | 543 kts | 360° |
| 2026-04-21 03:36 | 40.73118 | -122.23939 | 38007 ft | 543 kts | 360° |
| 2026-04-21 03:36 | 40.80685 | -122.23975 | 38018 ft | 543 kts | 360° |
| 2026-04-21 03:37 | 40.88229 | -122.24012 | 38035 ft | 542 kts | 0° |
| 2026-04-21 03:37 | 40.95785 | -122.24047 | 38043 ft | 543 kts | 0° |
| 2026-04-21 03:38 | 41.03337 | -122.24080 | 38047 ft | 543 kts | 0° |
| 2026-04-21 03:38 | 41.10908 | -122.24118 | 38046 ft | 543 kts | 0° |
| 2026-04-21 03:39 | 41.18490 | -122.24156 | 38039 ft | 546 kts | 0° |
| 2026-04-21 03:39 | 41.26088 | -122.24192 | 38036 ft | 545 kts | 0° |
| 2026-04-21 03:40 | 41.33670 | -122.24229 | 38027 ft | 545 kts | 0° |
| 2026-04-21 03:40 | 41.41214 | -122.24264 | 38021 ft | 545 kts | 360° |
| 2026-04-21 03:41 | 41.48828 | -122.24296 | 38007 ft | 547 kts | 360° |
| 2026-04-21 03:41 | 41.56418 | -122.24338 | 37987 ft | 545 kts | 360° |
| 2026-04-21 03:42 | 41.64019 | -122.24377 | 37972 ft | 547 kts | 360° |
| 2026-04-21 03:42 | 41.71642 | -122.24415 | 37968 ft | 547 kts | 360° |
| 2026-04-21 03:43 | 41.79264 | -122.24451 | 37965 ft | 546 kts | 360° |
| 2026-04-21 03:43 | 41.86870 | -122.24488 | 37962 ft | 547 kts | 360° |
| 2026-04-21 03:44 | 41.94435 | -122.24524 | 37959 ft | 547 kts | 360° |
| 2026-04-21 03:44 | 42.02043 | -122.24560 | 37955 ft | 547 kts | 360° |
| 2026-04-21 03:45 | 42.09657 | -122.24598 | 37944 ft | 546 kts | 360° |
| 2026-04-21 03:45 | 42.17262 | -122.24635 | 37937 ft | 546 kts | 360° |
| 2026-04-21 03:46 | 42.24858 | -122.24672 | 37928 ft | 546 kts | 360° |
| 2026-04-21 03:46 | 42.32453 | -122.24710 | 37922 ft | 545 kts | 359° |
| 2026-04-21 03:47 | 42.39987 | -122.24747 | 37914 ft | 544 kts | 360° |
| 2026-04-21 03:47 | 42.46335 | -122.24778 | 37912 ft | 544 kts | 360° |
| 2026-04-21 03:48 | 42.55134 | -122.24822 | 37909 ft | 543 kts | 360° |
| 2026-04-21 03:48 | 42.62702 | -122.24861 | 37917 ft | 543 kts | 360° |
| 2026-04-21 03:49 | 42.70261 | -122.24898 | 37915 ft | 543 kts | 360° |
| 2026-04-21 03:49 | 42.77819 | -122.24932 | 37909 ft | 543 kts | 360° |
| 2026-04-21 03:50 | 42.85360 | -122.24973 | 37904 ft | 543 kts | 359° |
| 2026-04-21 03:50 | 42.92919 | -122.25012 | 37903 ft | 543 kts | 359° |
| 2026-04-21 03:51 | 43.00463 | -122.25051 | 37901 ft | 542 kts | 360° |
| 2026-04-21 03:51 | 43.08014 | -122.25089 | 37901 ft | 541 kts | 360° |
| 2026-04-21 03:52 | 43.15544 | -122.25127 | 37891 ft | 541 kts | 360° |
| 2026-04-21 03:52 | 43.23026 | -122.25166 | 37892 ft | 540 kts | 360° |
| 2026-04-21 03:53 | 43.30553 | -122.25205 | 37874 ft | 540 kts | 360° |
| 2026-04-21 03:53 | 43.38082 | -122.25244 | 37879 ft | 539 kts | 360° |
| 2026-04-21 03:54 | 43.45574 | -122.25283 | 37877 ft | 540 kts | 360° |
| 2026-04-21 03:54 | 43.53084 | -122.25319 | 37876 ft | 540 kts | 360° |
| 2026-04-21 03:55 | 43.60541 | -122.25361 | 37868 ft | 538 kts | 360° |
| 2026-04-21 03:55 | 43.68044 | -122.25403 | 37868 ft | 541 kts | 360° |
| 2026-04-21 03:56 | 43.75554 | -122.25442 | 37879 ft | 538 kts | 359° |
| 2026-04-21 03:56 | 43.83073 | -122.25480 | 37878 ft | 540 kts | 359° |
| 2026-04-21 03:57 | 43.90578 | -122.25515 | 37874 ft | 539 kts | 359° |
| 2026-04-21 03:57 | 43.98090 | -122.25552 | 37872 ft | 539 kts | 359° |
| 2026-04-21 03:58 | 44.05596 | -122.25592 | 37877 ft | 539 kts | 359° |
| 2026-04-21 03:58 | 44.13059 | -122.25631 | 37879 ft | 539 kts | 359° |
| 2026-04-21 03:59 | 44.20567 | -122.25671 | 37883 ft | 539 kts | 359° |
| 2026-04-21 04:00 | 44.31814 | -122.25729 | 37887 ft | 538 kts | 359° |
| 2026-04-21 04:00 | 44.39303 | -122.25768 | 37882 ft | 536 kts | 359° |
| 2026-04-21 04:01 | 44.46760 | -122.25810 | 37888 ft | 537 kts | 359° |
| 2026-04-21 04:01 | 44.54217 | -122.25849 | 37877 ft | 536 kts | 359° |
| 2026-04-21 04:02 | 44.61622 | -122.25889 | 37882 ft | 535 kts | 359° |
| 2026-04-21 04:02 | 44.69060 | -122.25928 | 37887 ft | 534 kts | 359° |
| 2026-04-21 04:03 | 44.76467 | -122.25970 | 37893 ft | 532 kts | 359° |
| 2026-04-21 04:03 | 44.83872 | -122.26008 | 37896 ft | 531 kts | 359° |
| 2026-04-21 04:04 | 44.91267 | -122.26049 | 37883 ft | 532 kts | 359° |
| 2026-04-21 04:04 | 44.98668 | -122.26090 | 37884 ft | 530 kts | 359° |
| 2026-04-21 04:05 | 45.06050 | -122.26131 | 37877 ft | 530 kts | 359° |
| 2026-04-21 04:05 | 45.13412 | -122.26170 | 37873 ft | 529 kts | 359° |
| 2026-04-21 04:06 | 45.20726 | -122.26210 | 37871 ft | 529 kts | 359° |
| 2026-04-21 04:06 | 45.28080 | -122.26251 | 37858 ft | 529 kts | 358° |
| 2026-04-21 04:07 | 45.35433 | -122.26292 | 37852 ft | 527 kts | 358° |
| 2026-04-21 04:07 | 45.42758 | -122.26331 | 37854 ft | 526 kts | 358° |
| 2026-04-21 04:08 | 45.50078 | -122.26373 | 37858 ft | 525 kts | 358° |
| 2026-04-21 04:08 | 45.57369 | -122.26414 | 37856 ft | 523 kts | 358° |
| 2026-04-21 04:09 | 45.64649 | -122.26454 | 37852 ft | 522 kts | 358° |
| 2026-04-21 04:09 | 45.71910 | -122.26495 | 37858 ft | 521 kts | 358° |
| 2026-04-21 04:10 | 45.79165 | -122.26535 | 37841 ft | 521 kts | 358° |
| 2026-04-21 04:10 | 45.86420 | -122.26575 | 37841 ft | 521 kts | 358° |
| 2026-04-21 04:11 | 45.93620 | -122.26616 | 37851 ft | 521 kts | 358° |
| 2026-04-21 04:11 | 46.00875 | -122.26657 | 37843 ft | 520 kts | 358° |
| 2026-04-21 04:12 | 46.08108 | -122.26696 | 37841 ft | 519 kts | 358° |
| 2026-04-21 04:12 | 46.15334 | -122.26739 | 37841 ft | 519 kts | 358° |
| 2026-04-21 04:13 | 46.22573 | -122.26780 | 37843 ft | 519 kts | 358° |
| 2026-04-21 04:13 | 46.29801 | -122.26820 | 37836 ft | 519 kts | 358° |
| 2026-04-21 04:14 | 46.36971 | -122.26861 | 37845 ft | 518 kts | 358° |